sensor_id;sensor_type;location;lat;lon;timestamp;P1;durP1;ratioP1;P2;durP2;ratioP2
44722;SDS011;30451;48.638;10.624;2023-04-26T00:02:06;1.35;;;0.90;;
44722;SDS011;30451;48.638;10.624;2023-04-26T00:04:32;1.00;;;0.60;;
44722;SDS011;30451;48.638;10.624;2023-04-26T00:06:58;1.23;;;0.75;;
44722;SDS011;30451;48.638;10.624;2023-04-26T00:09:24;0.93;;;0.70;;
44722;SDS011;30451;48.638;10.624;2023-04-26T00:11:50;0.95;;;0.63;;
44722;SDS011;30451;48.638;10.624;2023-04-26T00:14:16;1.20;;;0.70;;
44722;SDS011;30451;48.638;10.624;2023-04-26T00:16:41;1.05;;;0.70;;
44722;SDS011;30451;48.638;10.624;2023-04-26T00:19:07;0.80;;;0.70;;
44722;SDS011;30451;48.638;10.624;2023-04-26T00:21:33;1.02;;;0.80;;
44722;SDS011;30451;48.638;10.624;2023-04-26T00:23:59;0.98;;;0.70;;
44722;SDS011;30451;48.638;10.624;2023-04-26T00:26:25;1.00;;;0.75;;
44722;SDS011;30451;48.638;10.624;2023-04-26T00:28:50;0.60;;;0.60;;
44722;SDS011;30451;48.638;10.624;2023-04-26T00:31:16;0.88;;;0.70;;
44722;SDS011;30451;48.638;10.624;2023-04-26T00:33:42;0.77;;;0.63;;
44722;SDS011;30451;48.638;10.624;2023-04-26T00:36:08;0.75;;;0.63;;
44722;SDS011;30451;48.638;10.624;2023-04-26T00:38:34;0.77;;;0.65;;
44722;SDS011;30451;48.638;10.624;2023-04-26T00:41:00;0.95;;;0.60;;
44722;SDS011;30451;48.638;10.624;2023-04-26T00:43:26;0.98;;;0.70;;
44722;SDS011;30451;48.638;10.624;2023-04-26T00:45:51;1.10;;;0.80;;
44722;SDS011;30451;48.638;10.624;2023-04-26T00:48:17;0.50;;;0.50;;
44722;SDS011;30451;48.638;10.624;2023-04-26T00:50:43;0.80;;;0.60;;
44722;SDS011;30451;48.638;10.624;2023-04-26T00:53:09;1.08;;;0.75;;
44722;SDS011;30451;48.638;10.624;2023-04-26T00:55:38;1.20;;;0.90;;
44722;SDS011;30451;48.638;10.624;2023-04-26T00:58:05;1.02;;;0.60;;
44722;SDS011;30451;48.638;10.624;2023-04-26T01:00:31;1.20;;;0.68;;
44722;SDS011;30451;48.638;10.624;2023-04-26T01:02:57;0.98;;;0.70;;
44722;SDS011;30451;48.638;10.624;2023-04-26T01:05:22;0.88;;;0.70;;
44722;SDS011;30451;48.638;10.624;2023-04-26T01:07:48;0.82;;;0.60;;
44722;SDS011;30451;48.638;10.624;2023-04-26T01:10:15;1.20;;;0.80;;
44722;SDS011;30451;48.638;10.624;2023-04-26T01:12:41;0.70;;;0.70;;
44722;SDS011;30451;48.638;10.624;2023-04-26T01:15:07;1.05;;;0.73;;
44722;SDS011;30451;48.638;10.624;2023-04-26T01:17:34;1.08;;;0.70;;
44722;SDS011;30451;48.638;10.624;2023-04-26T01:20:01;1.00;;;0.65;;
44722;SDS011;30451;48.638;10.624;2023-04-26T01:22:31;0.77;;;0.70;;
44722;SDS011;30451;48.638;10.624;2023-04-26T01:24:57;0.90;;;0.73;;
44722;SDS011;30451;48.638;10.624;2023-04-26T01:27:25;1.13;;;0.70;;
44722;SDS011;30451;48.638;10.624;2023-04-26T01:29:51;1.40;;;0.80;;
44722;SDS011;30451;48.638;10.624;2023-04-26T01:32:17;1.00;;;0.70;;
44722;SDS011;30451;48.638;10.624;2023-04-26T01:34:42;1.00;;;0.80;;
44722;SDS011;30451;48.638;10.624;2023-04-26T01:37:08;0.88;;;0.63;;
44722;SDS011;30451;48.638;10.624;2023-04-26T01:39:33;1.13;;;0.77;;
44722;SDS011;30451;48.638;10.624;2023-04-26T01:42:00;1.00;;;0.75;;
44722;SDS011;30451;48.638;10.624;2023-04-26T01:44:27;0.93;;;0.75;;
44722;SDS011;30451;48.638;10.624;2023-04-26T01:46:52;0.80;;;0.65;;
44722;SDS011;30451;48.638;10.624;2023-04-26T01:49:18;0.80;;;0.70;;
44722;SDS011;30451;48.638;10.624;2023-04-26T01:51:43;2.55;;;0.90;;
44722;SDS011;30451;48.638;10.624;2023-04-26T01:54:09;1.52;;;1.00;;
44722;SDS011;30451;48.638;10.624;2023-04-26T01:56:35;1.17;;;0.75;;
44722;SDS011;30451;48.638;10.624;2023-04-26T01:59:00;1.02;;;0.70;;
44722;SDS011;30451;48.638;10.624;2023-04-26T02:01:26;0.95;;;0.70;;
44722;SDS011;30451;48.638;10.624;2023-04-26T02:03:52;0.70;;;0.60;;
44722;SDS011;30451;48.638;10.624;2023-04-26T02:06:17;1.63;;;0.80;;
44722;SDS011;30451;48.638;10.624;2023-04-26T02:08:43;0.88;;;0.70;;
44722;SDS011;30451;48.638;10.624;2023-04-26T02:11:09;1.10;;;0.70;;
44722;SDS011;30451;48.638;10.624;2023-04-26T02:13:35;1.27;;;0.70;;
44722;SDS011;30451;48.638;10.624;2023-04-26T02:16:01;0.98;;;0.70;;
44722;SDS011;30451;48.638;10.624;2023-04-26T02:18:27;1.92;;;0.82;;
44722;SDS011;30451;48.638;10.624;2023-04-26T02:20:53;1.00;;;0.77;;
44722;SDS011;30451;48.638;10.624;2023-04-26T02:23:19;0.65;;;0.65;;
44722;SDS011;30451;48.638;10.624;2023-04-26T02:25:45;1.02;;;0.60;;
44722;SDS011;30451;48.638;10.624;2023-04-26T02:28:12;0.93;;;0.70;;
44722;SDS011;30451;48.638;10.624;2023-04-26T02:30:40;1.10;;;0.68;;
44722;SDS011;30451;48.638;10.624;2023-04-26T02:33:06;1.25;;;0.75;;
44722;SDS011;30451;48.638;10.624;2023-04-26T02:35:32;1.08;;;0.80;;
44722;SDS011;30451;48.638;10.624;2023-04-26T02:37:59;0.85;;;0.70;;
44722;SDS011;30451;48.638;10.624;2023-04-26T02:40:24;0.82;;;0.63;;
44722;SDS011;30451;48.638;10.624;2023-04-26T02:42:50;1.10;;;0.73;;
44722;SDS011;30451;48.638;10.624;2023-04-26T02:45:15;0.60;;;0.60;;
44722;SDS011;30451;48.638;10.624;2023-04-26T02:47:41;0.68;;;0.60;;
44722;SDS011;30451;48.638;10.624;2023-04-26T02:50:07;1.00;;;0.77;;
44722;SDS011;30451;48.638;10.624;2023-04-26T02:52:33;0.98;;;0.80;;
44722;SDS011;30451;48.638;10.624;2023-04-26T02:55:02;0.85;;;0.65;;
44722;SDS011;30451;48.638;10.624;2023-04-26T02:57:28;0.98;;;0.70;;
44722;SDS011;30451;48.638;10.624;2023-04-26T02:59:55;0.93;;;0.80;;
44722;SDS011;30451;48.638;10.624;2023-04-26T03:02:21;1.05;;;0.70;;
44722;SDS011;30451;48.638;10.624;2023-04-26T03:04:47;0.70;;;0.70;;
44722;SDS011;30451;48.638;10.624;2023-04-26T03:07:12;0.98;;;0.77;;
44722;SDS011;30451;48.638;10.624;2023-04-26T03:09:38;0.73;;;0.70;;
44722;SDS011;30451;48.638;10.624;2023-04-26T03:12:06;0.70;;;0.68;;
44722;SDS011;30451;48.638;10.624;2023-04-26T03:16:59;1.00;;;0.70;;
44722;SDS011;30451;48.638;10.624;2023-04-26T03:19:25;1.02;;;0.70;;
44722;SDS011;30451;48.638;10.624;2023-04-26T03:21:52;0.70;;;0.70;;
44722;SDS011;30451;48.638;10.624;2023-04-26T03:24:18;1.00;;;0.80;;
44722;SDS011;30451;48.638;10.624;2023-04-26T03:26:44;0.63;;;0.60;;
44722;SDS011;30451;48.638;10.624;2023-04-26T03:29:09;0.75;;;0.60;;
44722;SDS011;30451;48.638;10.624;2023-04-26T03:31:36;1.63;;;0.70;;
44722;SDS011;30451;48.638;10.624;2023-04-26T03:34:02;0.98;;;0.60;;
44722;SDS011;30451;48.638;10.624;2023-04-26T03:36:28;0.70;;;0.70;;
44722;SDS011;30451;48.638;10.624;2023-04-26T03:38:54;0.70;;;0.70;;
44722;SDS011;30451;48.638;10.624;2023-04-26T03:41:20;1.10;;;0.70;;
44722;SDS011;30451;48.638;10.624;2023-04-26T03:43:46;0.85;;;0.70;;
44722;SDS011;30451;48.638;10.624;2023-04-26T03:46:12;1.08;;;0.60;;
44722;SDS011;30451;48.638;10.624;2023-04-26T03:48:38;0.60;;;0.60;;
44722;SDS011;30451;48.638;10.624;2023-04-26T03:51:04;0.80;;;0.70;;
44722;SDS011;30451;48.638;10.624;2023-04-26T03:53:30;0.98;;;0.70;;
44722;SDS011;30451;48.638;10.624;2023-04-26T03:55:56;1.00;;;0.75;;
44722;SDS011;30451;48.638;10.624;2023-04-26T03:58:23;1.30;;;0.80;;
44722;SDS011;30451;48.638;10.624;2023-04-26T04:00:50;0.77;;;0.70;;
44722;SDS011;30451;48.638;10.624;2023-04-26T04:03:16;0.68;;;0.68;;
44722;SDS011;30451;48.638;10.624;2023-04-26T04:05:42;0.57;;;0.50;;
44722;SDS011;30451;48.638;10.624;2023-04-26T04:08:08;0.98;;;0.75;;
44722;SDS011;30451;48.638;10.624;2023-04-26T04:10:34;0.93;;;0.80;;
44722;SDS011;30451;48.638;10.624;2023-04-26T04:13:01;0.80;;;0.70;;
44722;SDS011;30451;48.638;10.624;2023-04-26T04:15:27;0.70;;;0.70;;
44722;SDS011;30451;48.638;10.624;2023-04-26T04:17:53;1.02;;;0.70;;
44722;SDS011;30451;48.638;10.624;2023-04-26T04:20:18;0.90;;;0.70;;
44722;SDS011;30451;48.638;10.624;2023-04-26T04:22:45;0.93;;;0.70;;
44722;SDS011;30451;48.638;10.624;2023-04-26T04:25:11;0.70;;;0.70;;
44722;SDS011;30451;48.638;10.624;2023-04-26T04:27:37;0.70;;;0.70;;
44722;SDS011;30451;48.638;10.624;2023-04-26T04:30:06;0.75;;;0.70;;
44722;SDS011;30451;48.638;10.624;2023-04-26T04:32:34;1.48;;;0.60;;
44722;SDS011;30451;48.638;10.624;2023-04-26T04:35:01;1.00;;;0.70;;
44722;SDS011;30451;48.638;10.624;2023-04-26T04:37:26;1.40;;;0.80;;
44722;SDS011;30451;48.638;10.624;2023-04-26T04:39:57;0.85;;;0.75;;
44722;SDS011;30451;48.638;10.624;2023-04-26T04:42:23;1.38;;;0.80;;
44722;SDS011;30451;48.638;10.624;2023-04-26T04:44:51;0.88;;;0.68;;
44722;SDS011;30451;48.638;10.624;2023-04-26T04:47:17;0.80;;;0.70;;
44722;SDS011;30451;48.638;10.624;2023-04-26T04:49:42;0.70;;;0.60;;
44722;SDS011;30451;48.638;10.624;2023-04-26T04:52:08;0.73;;;0.70;;
44722;SDS011;30451;48.638;10.624;2023-04-26T04:54:34;1.08;;;0.88;;
44722;SDS011;30451;48.638;10.624;2023-04-26T04:56:59;0.60;;;0.60;;
44722;SDS011;30451;48.638;10.624;2023-04-26T04:59:25;0.80;;;0.70;;
44722;SDS011;30451;48.638;10.624;2023-04-26T05:01:51;0.80;;;0.70;;
44722;SDS011;30451;48.638;10.624;2023-04-26T05:04:17;0.73;;;0.60;;
44722;SDS011;30451;48.638;10.624;2023-04-26T05:06:42;1.50;;;0.70;;
44722;SDS011;30451;48.638;10.624;2023-04-26T05:09:08;0.70;;;0.70;;
44722;SDS011;30451;48.638;10.624;2023-04-26T05:11:34;0.68;;;0.68;;
44722;SDS011;30451;48.638;10.624;2023-04-26T05:14:00;2.55;;;1.33;;
44722;SDS011;30451;48.638;10.624;2023-04-26T05:16:26;1.10;;;0.80;;
44722;SDS011;30451;48.638;10.624;2023-04-26T05:18:51;0.82;;;0.70;;
44722;SDS011;30451;48.638;10.624;2023-04-26T05:21:17;0.70;;;0.70;;
44722;SDS011;30451;48.638;10.624;2023-04-26T05:23:43;1.02;;;0.80;;
44722;SDS011;30451;48.638;10.624;2023-04-26T05:26:11;1.00;;;0.73;;
44722;SDS011;30451;48.638;10.624;2023-04-26T05:31:04;1.67;;;0.82;;
44722;SDS011;30451;48.638;10.624;2023-04-26T05:33:29;1.80;;;0.80;;
44722;SDS011;30451;48.638;10.624;2023-04-26T05:35:55;1.85;;;0.80;;
44722;SDS011;30451;48.638;10.624;2023-04-26T05:38:22;1.95;;;0.98;;
44722;SDS011;30451;48.638;10.624;2023-04-26T05:40:47;1.52;;;0.80;;
44722;SDS011;30451;48.638;10.624;2023-04-26T05:43:13;1.73;;;1.00;;
44722;SDS011;30451;48.638;10.624;2023-04-26T05:45:39;1.60;;;0.80;;
44722;SDS011;30451;48.638;10.624;2023-04-26T05:48:04;1.40;;;0.80;;
44722;SDS011;30451;48.638;10.624;2023-04-26T05:50:30;1.88;;;0.93;;
44722;SDS011;30451;48.638;10.624;2023-04-26T05:52:56;1.45;;;0.90;;
44722;SDS011;30451;48.638;10.624;2023-04-26T05:55:22;1.85;;;0.90;;
44722;SDS011;30451;48.638;10.624;2023-04-26T05:57:47;1.65;;;0.93;;
44722;SDS011;30451;48.638;10.624;2023-04-26T06:00:13;0.90;;;0.70;;
44722;SDS011;30451;48.638;10.624;2023-04-26T06:02:39;1.42;;;0.80;;
44722;SDS011;30451;48.638;10.624;2023-04-26T06:05:05;1.55;;;0.98;;
44722;SDS011;30451;48.638;10.624;2023-04-26T06:07:31;1.83;;;0.90;;
44722;SDS011;30451;48.638;10.624;2023-04-26T06:09:57;1.88;;;1.10;;
44722;SDS011;30451;48.638;10.624;2023-04-26T06:12:25;0.95;;;0.80;;
44722;SDS011;30451;48.638;10.624;2023-04-26T06:14:50;2.28;;;0.90;;
44722;SDS011;30451;48.638;10.624;2023-04-26T06:17:16;0.80;;;0.70;;
44722;SDS011;30451;48.638;10.624;2023-04-26T06:19:41;1.10;;;0.75;;
44722;SDS011;30451;48.638;10.624;2023-04-26T06:22:07;2.17;;;0.90;;
44722;SDS011;30451;48.638;10.624;2023-04-26T06:24:32;1.67;;;0.90;;
44722;SDS011;30451;48.638;10.624;2023-04-26T06:26:58;1.48;;;0.80;;
44722;SDS011;30451;48.638;10.624;2023-04-26T06:29:23;1.60;;;0.85;;
44722;SDS011;30451;48.638;10.624;2023-04-26T06:31:49;1.08;;;0.75;;
44722;SDS011;30451;48.638;10.624;2023-04-26T06:34:15;1.63;;;0.85;;
44722;SDS011;30451;48.638;10.624;2023-04-26T06:36:40;1.73;;;0.90;;
44722;SDS011;30451;48.638;10.624;2023-04-26T06:39:06;1.80;;;1.00;;
44722;SDS011;30451;48.638;10.624;2023-04-26T06:41:32;2.25;;;1.05;;
44722;SDS011;30451;48.638;10.624;2023-04-26T06:43:57;2.28;;;0.90;;
44722;SDS011;30451;48.638;10.624;2023-04-26T06:46:23;2.33;;;1.00;;
44722;SDS011;30451;48.638;10.624;2023-04-26T06:48:48;3.40;;;1.25;;
44722;SDS011;30451;48.638;10.624;2023-04-26T06:51:16;2.70;;;1.02;;
44722;SDS011;30451;48.638;10.624;2023-04-26T06:53:42;1.90;;;1.10;;
44722;SDS011;30451;48.638;10.624;2023-04-26T06:56:07;1.80;;;0.90;;
44722;SDS011;30451;48.638;10.624;2023-04-26T06:58:33;1.58;;;1.00;;
44722;SDS011;30451;48.638;10.624;2023-04-26T07:00:58;1.90;;;1.10;;
44722;SDS011;30451;48.638;10.624;2023-04-26T07:03:25;2.55;;;1.30;;
44722;SDS011;30451;48.638;10.624;2023-04-26T07:05:50;2.38;;;1.20;;
44722;SDS011;30451;48.638;10.624;2023-04-26T07:08:16;2.42;;;1.30;;
44722;SDS011;30451;48.638;10.624;2023-04-26T07:10:42;3.17;;;1.23;;
44722;SDS011;30451;48.638;10.624;2023-04-26T07:13:07;1.67;;;1.10;;
44722;SDS011;30451;48.638;10.624;2023-04-26T07:15:33;2.17;;;1.17;;
44722;SDS011;30451;48.638;10.624;2023-04-26T07:18:00;3.30;;;1.20;;
44722;SDS011;30451;48.638;10.624;2023-04-26T07:20:25;2.97;;;1.30;;
44722;SDS011;30451;48.638;10.624;2023-04-26T07:22:51;2.70;;;1.15;;
44722;SDS011;30451;48.638;10.624;2023-04-26T07:25:17;1.48;;;1.00;;
44722;SDS011;30451;48.638;10.624;2023-04-26T07:27:42;2.00;;;1.20;;
44722;SDS011;30451;48.638;10.624;2023-04-26T07:30:08;2.50;;;1.20;;
44722;SDS011;30451;48.638;10.624;2023-04-26T07:32:34;2.40;;;1.20;;
44722;SDS011;30451;48.638;10.624;2023-04-26T07:35:00;2.40;;;1.20;;
44722;SDS011;30451;48.638;10.624;2023-04-26T07:37:31;2.05;;;1.23;;
44722;SDS011;30451;48.638;10.624;2023-04-26T07:39:57;2.33;;;1.27;;
44722;SDS011;30451;48.638;10.624;2023-04-26T07:42:22;2.47;;;1.20;;
44722;SDS011;30451;48.638;10.624;2023-04-26T07:44:48;2.60;;;1.27;;
44722;SDS011;30451;48.638;10.624;2023-04-26T07:47:13;2.85;;;1.27;;
44722;SDS011;30451;48.638;10.624;2023-04-26T07:49:39;2.22;;;1.20;;
44722;SDS011;30451;48.638;10.624;2023-04-26T07:52:06;4.00;;;1.52;;
44722;SDS011;30451;48.638;10.624;2023-04-26T07:54:33;3.47;;;1.48;;
44722;SDS011;30451;48.638;10.624;2023-04-26T07:56:58;3.40;;;1.30;;
44722;SDS011;30451;48.638;10.624;2023-04-26T07:59:24;1.98;;;1.20;;
44722;SDS011;30451;48.638;10.624;2023-04-26T08:01:50;2.70;;;1.13;;
44722;SDS011;30451;48.638;10.624;2023-04-26T08:04:16;2.55;;;1.25;;
44722;SDS011;30451;48.638;10.624;2023-04-26T08:06:43;3.08;;;1.27;;
44722;SDS011;30451;48.638;10.624;2023-04-26T08:09:10;2.22;;;1.33;;
44722;SDS011;30451;48.638;10.624;2023-04-26T08:11:35;3.10;;;1.23;;
44722;SDS011;30451;48.638;10.624;2023-04-26T08:14:01;2.40;;;1.15;;
44722;SDS011;30451;48.638;10.624;2023-04-26T08:16:27;2.30;;;1.20;;
44722;SDS011;30451;48.638;10.624;2023-04-26T08:18:53;2.05;;;1.45;;
44722;SDS011;30451;48.638;10.624;2023-04-26T08:21:19;2.17;;;1.15;;
44722;SDS011;30451;48.638;10.624;2023-04-26T08:23:45;2.13;;;1.20;;
44722;SDS011;30451;48.638;10.624;2023-04-26T08:26:11;2.83;;;1.23;;
44722;SDS011;30451;48.638;10.624;2023-04-26T08:28:36;2.10;;;1.15;;
44722;SDS011;30451;48.638;10.624;2023-04-26T08:31:02;2.00;;;1.10;;
44722;SDS011;30451;48.638;10.624;2023-04-26T08:33:28;2.60;;;1.20;;
44722;SDS011;30451;48.638;10.624;2023-04-26T08:35:54;2.45;;;1.20;;
44722;SDS011;30451;48.638;10.624;2023-04-26T08:38:20;2.00;;;1.02;;
44722;SDS011;30451;48.638;10.624;2023-04-26T08:40:46;1.77;;;1.08;;
44722;SDS011;30451;48.638;10.624;2023-04-26T08:43:12;2.42;;;1.20;;
44722;SDS011;30451;48.638;10.624;2023-04-26T08:45:40;2.20;;;1.15;;
44722;SDS011;30451;48.638;10.624;2023-04-26T08:48:09;2.25;;;1.30;;
44722;SDS011;30451;48.638;10.624;2023-04-26T08:50:38;1.85;;;1.10;;
44722;SDS011;30451;48.638;10.624;2023-04-26T08:53:07;1.55;;;1.00;;
44722;SDS011;30451;48.638;10.624;2023-04-26T08:55:33;2.10;;;1.10;;
44722;SDS011;30451;48.638;10.624;2023-04-26T08:58:00;2.85;;;1.27;;
44722;SDS011;30451;48.638;10.624;2023-04-26T09:00:26;1.70;;;1.00;;
44722;SDS011;30451;48.638;10.624;2023-04-26T09:02:52;2.15;;;1.15;;
44722;SDS011;30451;48.638;10.624;2023-04-26T09:05:18;1.52;;;0.90;;
44722;SDS011;30451;48.638;10.624;2023-04-26T09:10:16;1.90;;;0.93;;
44722;SDS011;30451;48.638;10.624;2023-04-26T09:12:45;1.35;;;0.80;;
44722;SDS011;30451;48.638;10.624;2023-04-26T09:15:11;1.63;;;1.00;;
44722;SDS011;30451;48.638;10.624;2023-04-26T09:17:39;1.45;;;0.90;;
44722;SDS011;30451;48.638;10.624;2023-04-26T09:23:12;1.73;;;0.90;;
44722;SDS011;30451;48.638;10.624;2023-04-26T09:25:37;2.15;;;1.30;;
44722;SDS011;30451;48.638;10.624;2023-04-26T09:28:03;2.08;;;1.08;;
44722;SDS011;30451;48.638;10.624;2023-04-26T09:30:43;1.52;;;1.00;;
44722;SDS011;30451;48.638;10.624;2023-04-26T09:33:09;1.40;;;1.00;;
44722;SDS011;30451;48.638;10.624;2023-04-26T09:35:38;3.38;;;1.60;;
44722;SDS011;30451;48.638;10.624;2023-04-26T09:38:06;1.45;;;0.90;;
44722;SDS011;30451;48.638;10.624;2023-04-26T09:40:34;1.48;;;0.93;;
44722;SDS011;30451;48.638;10.624;2023-04-26T09:43:02;1.88;;;0.90;;
44722;SDS011;30451;48.638;10.624;2023-04-26T09:45:32;1.65;;;1.05;;
44722;SDS011;30451;48.638;10.624;2023-04-26T09:48:51;1.80;;;1.05;;
44722;SDS011;30451;48.638;10.624;2023-04-26T09:53:28;2.47;;;1.00;;
44722;SDS011;30451;48.638;10.624;2023-04-26T09:56:12;1.55;;;1.00;;
44722;SDS011;30451;48.638;10.624;2023-04-26T10:01:22;1.27;;;0.93;;
44722;SDS011;30451;48.638;10.624;2023-04-26T10:03:47;1.83;;;1.00;;
44722;SDS011;30451;48.638;10.624;2023-04-26T10:06:14;1.85;;;1.00;;
44722;SDS011;30451;48.638;10.624;2023-04-26T10:08:40;1.63;;;0.98;;
44722;SDS011;30451;48.638;10.624;2023-04-26T10:11:06;1.67;;;1.00;;
44722;SDS011;30451;48.638;10.624;2023-04-26T10:13:34;2.00;;;1.00;;
44722;SDS011;30451;48.638;10.624;2023-04-26T10:16:00;1.27;;;0.93;;
44722;SDS011;30451;48.638;10.624;2023-04-26T10:18:26;1.95;;;1.00;;
44722;SDS011;30451;48.638;10.624;2023-04-26T10:20:52;2.60;;;1.00;;
44722;SDS011;30451;48.638;10.624;2023-04-26T10:23:22;1.85;;;1.08;;
44722;SDS011;30451;48.638;10.624;2023-04-26T10:25:51;1.83;;;0.90;;
44722;SDS011;30451;48.638;10.624;2023-04-26T10:28:23;1.98;;;1.08;;
44722;SDS011;30451;48.638;10.624;2023-04-26T10:31:12;1.67;;;1.00;;
44722;SDS011;30451;48.638;10.624;2023-04-26T10:33:38;1.73;;;0.95;;
44722;SDS011;30451;48.638;10.624;2023-04-26T10:41:40;1.52;;;0.90;;
44722;SDS011;30451;48.638;10.624;2023-04-26T10:47:20;1.25;;;0.90;;
44722;SDS011;30451;48.638;10.624;2023-04-26T10:49:47;1.13;;;0.82;;
44722;SDS011;30451;48.638;10.624;2023-04-26T10:52:14;1.67;;;0.93;;
44722;SDS011;30451;48.638;10.624;2023-04-26T10:57:19;2.10;;;1.30;;
44722;SDS011;30451;48.638;10.624;2023-04-26T11:00:29;2.30;;;1.13;;
44722;SDS011;30451;48.638;10.624;2023-04-26T11:03:01;1.52;;;0.95;;
44722;SDS011;30451;48.638;10.624;2023-04-26T11:05:34;2.15;;;1.10;;
44722;SDS011;30451;48.638;10.624;2023-04-26T11:08:23;2.17;;;1.23;;
44722;SDS011;30451;48.638;10.624;2023-04-26T11:10:52;1.90;;;1.10;;
44722;SDS011;30451;48.638;10.624;2023-04-26T11:13:20;1.98;;;1.13;;
44722;SDS011;30451;48.638;10.624;2023-04-26T11:15:46;2.40;;;1.15;;
44722;SDS011;30451;48.638;10.624;2023-04-26T11:18:17;2.47;;;1.40;;
44722;SDS011;30451;48.638;10.624;2023-04-26T11:20:44;2.30;;;1.13;;
44722;SDS011;30451;48.638;10.624;2023-04-26T11:23:11;2.63;;;1.30;;
44722;SDS011;30451;48.638;10.624;2023-04-26T11:25:37;3.10;;;1.40;;
44722;SDS011;30451;48.638;10.624;2023-04-26T11:28:03;2.30;;;1.38;;
44722;SDS011;30451;48.638;10.624;2023-04-26T11:30:31;2.72;;;1.30;;
44722;SDS011;30451;48.638;10.624;2023-04-26T11:33:00;2.35;;;1.40;;
44722;SDS011;30451;48.638;10.624;2023-04-26T11:35:31;4.30;;;1.70;;
44722;SDS011;30451;48.638;10.624;2023-04-26T11:37:59;3.13;;;1.60;;
44722;SDS011;30451;48.638;10.624;2023-04-26T11:40:28;2.83;;;1.67;;
44722;SDS011;30451;48.638;10.624;2023-04-26T11:42:58;2.95;;;1.63;;
44722;SDS011;30451;48.638;10.624;2023-04-26T11:45:25;3.78;;;1.88;;
44722;SDS011;30451;48.638;10.624;2023-04-26T11:47:51;3.60;;;1.60;;
44722;SDS011;30451;48.638;10.624;2023-04-26T11:50:17;1.83;;;1.20;;
44722;SDS011;30451;48.638;10.624;2023-04-26T11:52:43;2.78;;;1.40;;
44722;SDS011;30451;48.638;10.624;2023-04-26T11:55:09;4.25;;;1.55;;
44722;SDS011;30451;48.638;10.624;2023-04-26T11:57:35;3.22;;;1.75;;
44722;SDS011;30451;48.638;10.624;2023-04-26T12:00:11;2.72;;;1.52;;
44722;SDS011;30451;48.638;10.624;2023-04-26T12:02:39;3.15;;;1.63;;
44722;SDS011;30451;48.638;10.624;2023-04-26T12:05:08;3.45;;;1.85;;
44722;SDS011;30451;48.638;10.624;2023-04-26T12:07:34;3.08;;;1.60;;
44722;SDS011;30451;48.638;10.624;2023-04-26T12:10:15;2.80;;;1.60;;
44722;SDS011;30451;48.638;10.624;2023-04-26T12:12:42;2.67;;;1.40;;
44722;SDS011;30451;48.638;10.624;2023-04-26T12:15:10;2.78;;;1.50;;
44722;SDS011;30451;48.638;10.624;2023-04-26T12:17:36;3.30;;;1.70;;
44722;SDS011;30451;48.638;10.624;2023-04-26T12:20:07;3.25;;;1.63;;
44722;SDS011;30451;48.638;10.624;2023-04-26T12:22:35;2.38;;;1.30;;
44722;SDS011;30451;48.638;10.624;2023-04-26T12:25:04;3.03;;;1.38;;
44722;SDS011;30451;48.638;10.624;2023-04-26T12:27:30;3.47;;;1.50;;
44722;SDS011;30451;48.638;10.624;2023-04-26T12:29:56;2.50;;;1.40;;
44722;SDS011;30451;48.638;10.624;2023-04-26T12:32:22;2.70;;;1.48;;
44722;SDS011;30451;48.638;10.624;2023-04-26T12:34:47;2.30;;;1.20;;
44722;SDS011;30451;48.638;10.624;2023-04-26T12:37:13;2.80;;;1.25;;
44722;SDS011;30451;48.638;10.624;2023-04-26T12:39:39;2.33;;;1.50;;
44722;SDS011;30451;48.638;10.624;2023-04-26T12:42:04;2.60;;;1.40;;
44722;SDS011;30451;48.638;10.624;2023-04-26T12:44:30;2.33;;;1.30;;
44722;SDS011;30451;48.638;10.624;2023-04-26T12:46:56;2.15;;;1.30;;
44722;SDS011;30451;48.638;10.624;2023-04-26T12:49:21;2.47;;;1.33;;
44722;SDS011;30451;48.638;10.624;2023-04-26T12:51:47;2.47;;;1.40;;
44722;SDS011;30451;48.638;10.624;2023-04-26T12:54:13;2.40;;;1.27;;
44722;SDS011;30451;48.638;10.624;2023-04-26T12:56:38;2.72;;;1.40;;
44722;SDS011;30451;48.638;10.624;2023-04-26T12:59:08;2.33;;;1.38;;
44722;SDS011;30451;48.638;10.624;2023-04-26T13:01:33;2.75;;;1.60;;
44722;SDS011;30451;48.638;10.624;2023-04-26T13:03:59;2.40;;;1.15;;
44722;SDS011;30451;48.638;10.624;2023-04-26T13:06:28;2.45;;;1.20;;
44722;SDS011;30451;48.638;10.624;2023-04-26T13:08:54;2.15;;;1.20;;
44722;SDS011;30451;48.638;10.624;2023-04-26T13:11:20;3.97;;;1.45;;
44722;SDS011;30451;48.638;10.624;2023-04-26T13:13:46;3.38;;;1.33;;
44722;SDS011;30451;48.638;10.624;2023-04-26T13:16:13;2.58;;;1.40;;
44722;SDS011;30451;48.638;10.624;2023-04-26T13:18:39;2.30;;;1.30;;
44722;SDS011;30451;48.638;10.624;2023-04-26T13:21:05;3.60;;;1.30;;
44722;SDS011;30451;48.638;10.624;2023-04-26T13:23:31;2.20;;;1.20;;
44722;SDS011;30451;48.638;10.624;2023-04-26T13:25:57;2.03;;;1.10;;
44722;SDS011;30451;48.638;10.624;2023-04-26T13:28:22;2.13;;;1.17;;
44722;SDS011;30451;48.638;10.624;2023-04-26T13:30:48;2.08;;;1.27;;
44722;SDS011;30451;48.638;10.624;2023-04-26T13:33:14;2.28;;;1.27;;
44722;SDS011;30451;48.638;10.624;2023-04-26T13:35:39;2.25;;;1.30;;
44722;SDS011;30451;48.638;10.624;2023-04-26T13:38:05;2.00;;;1.10;;
44722;SDS011;30451;48.638;10.624;2023-04-26T13:40:31;2.67;;;1.20;;
44722;SDS011;30451;48.638;10.624;2023-04-26T13:42:56;2.03;;;1.10;;
44722;SDS011;30451;48.638;10.624;2023-04-26T13:45:22;2.42;;;1.30;;
44722;SDS011;30451;48.638;10.624;2023-04-26T13:47:47;2.17;;;1.10;;
44722;SDS011;30451;48.638;10.624;2023-04-26T13:50:13;3.15;;;1.20;;
44722;SDS011;30451;48.638;10.624;2023-04-26T13:52:39;4.30;;;1.25;;
44722;SDS011;30451;48.638;10.624;2023-04-26T13:55:04;2.85;;;1.40;;
44722;SDS011;30451;48.638;10.624;2023-04-26T13:57:30;2.20;;;1.15;;
44722;SDS011;30451;48.638;10.624;2023-04-26T13:59:56;2.08;;;1.10;;
44722;SDS011;30451;48.638;10.624;2023-04-26T14:02:22;2.03;;;1.10;;
44722;SDS011;30451;48.638;10.624;2023-04-26T14:04:48;3.05;;;1.17;;
44722;SDS011;30451;48.638;10.624;2023-04-26T14:07:14;2.38;;;1.00;;
44722;SDS011;30451;48.638;10.624;2023-04-26T14:09:39;2.30;;;1.10;;
44722;SDS011;30451;48.638;10.624;2023-04-26T14:12:05;2.38;;;1.10;;
44722;SDS011;30451;48.638;10.624;2023-04-26T14:14:31;2.20;;;1.23;;
44722;SDS011;30451;48.638;10.624;2023-04-26T14:16:56;3.28;;;1.10;;
44722;SDS011;30451;48.638;10.624;2023-04-26T14:19:22;1.92;;;1.13;;
44722;SDS011;30451;48.638;10.624;2023-04-26T14:21:48;2.35;;;1.17;;
44722;SDS011;30451;48.638;10.624;2023-04-26T14:24:13;2.38;;;1.20;;
44722;SDS011;30451;48.638;10.624;2023-04-26T14:26:39;2.20;;;1.05;;
44722;SDS011;30451;48.638;10.624;2023-04-26T14:29:05;1.50;;;1.02;;
44722;SDS011;30451;48.638;10.624;2023-04-26T14:31:31;2.38;;;1.20;;
44722;SDS011;30451;48.638;10.624;2023-04-26T14:33:57;2.05;;;1.00;;
44722;SDS011;30451;48.638;10.624;2023-04-26T14:36:22;2.70;;;1.25;;
44722;SDS011;30451;48.638;10.624;2023-04-26T14:38:48;2.45;;;1.30;;
44722;SDS011;30451;48.638;10.624;2023-04-26T14:41:15;2.63;;;1.00;;
44722;SDS011;30451;48.638;10.624;2023-04-26T14:43:41;2.42;;;1.35;;
44722;SDS011;30451;48.638;10.624;2023-04-26T14:46:09;2.70;;;1.20;;
44722;SDS011;30451;48.638;10.624;2023-04-26T14:48:35;1.90;;;1.00;;
44722;SDS011;30451;48.638;10.624;2023-04-26T14:51:01;2.03;;;1.10;;
44722;SDS011;30451;48.638;10.624;2023-04-26T14:53:27;1.98;;;1.00;;
44722;SDS011;30451;48.638;10.624;2023-04-26T14:55:53;3.15;;;1.20;;
44722;SDS011;30451;48.638;10.624;2023-04-26T14:58:20;2.33;;;1.17;;